createdAt,value
2017-07-20T00:00:22.847Z,20.85
2017-07-20T00:02:51.371Z,20.95
2017-07-20T00:05:19.724Z,20.76
2017-07-20T00:07:48.082Z,20.63
2017-07-20T00:10:16.849Z,20.62
2017-07-20T00:12:45.243Z,20.63
2017-07-20T00:15:14.021Z,20.70
2017-07-20T00:17:42.383Z,20.63
2017-07-20T00:20:10.749Z,20.77
2017-07-20T00:22:39.140Z,20.66
2017-07-20T00:25:07.503Z,20.68
2017-07-20T00:27:35.852Z,20.81
2017-07-20T00:30:04.680Z,20.72
2017-07-20T00:32:33.041Z,20.75
2017-07-20T00:35:01.417Z,20.71
2017-07-20T00:37:29.798Z,20.57
2017-07-20T00:39:58.166Z,20.63
2017-07-20T00:42:26.537Z,20.67
2017-07-20T00:44:54.903Z,20.62
2017-07-20T00:47:23.655Z,20.63
2017-07-20T00:49:52.017Z,20.65
2017-07-20T00:52:20.604Z,20.65
2017-07-20T00:54:48.956Z,20.65
2017-07-20T00:57:17.307Z,20.64
2017-07-20T00:59:46.090Z,20.66
2017-07-20T01:02:14.842Z,20.63
2017-07-20T01:04:43.202Z,20.62
2017-07-20T01:07:11.557Z,20.58
2017-07-20T01:09:39.912Z,20.59
2017-07-20T01:12:08.272Z,20.55
2017-07-20T01:14:36.641Z,20.55
2017-07-20T01:17:04.998Z,20.62
2017-07-20T01:19:33.707Z,20.64
2017-07-20T01:22:02.069Z,20.61
2017-07-20T01:24:30.435Z,20.70
2017-07-20T01:26:58.805Z,20.70
2017-07-20T01:29:27.151Z,20.72
2017-07-20T01:31:55.525Z,20.72
2017-07-20T01:34:23.878Z,20.71
2017-07-20T01:36:52.250Z,20.79
2017-07-20T01:39:20.600Z,20.79
2017-07-20T01:41:49.034Z,20.75
2017-07-20T01:44:17.386Z,20.78
2017-07-20T01:46:46.080Z,20.82
2017-07-20T01:49:14.448Z,20.89
2017-07-20T01:51:42.809Z,20.89
2017-07-20T01:54:11.184Z,20.92
2017-07-20T01:56:39.535Z,20.90
2017-07-20T01:59:07.980Z,20.96
2017-07-20T02:01:36.341Z,20.97
2017-07-20T02:04:04.714Z,21.00
2017-07-20T02:06:33.370Z,21.04
2017-07-20T02:09:02.429Z,21.01
2017-07-20T02:11:32.453Z,21.06
2017-07-20T02:14:00.813Z,21.04
2017-07-20T02:16:29.860Z,21.08
2017-07-20T02:18:58.595Z,21.08
2017-07-20T02:21:26.978Z,21.06
2017-07-20T02:23:55.328Z,21.15
2017-07-20T02:26:23.698Z,21.21
2017-07-20T02:28:52.057Z,21.15
2017-07-20T02:31:20.803Z,21.13
2017-07-20T02:33:49.161Z,21.08
2017-07-20T02:36:17.767Z,21.20
2017-07-20T02:38:46.142Z,21.18
2017-07-20T02:41:14.505Z,21.33
2017-07-20T02:43:42.877Z,21.31
2017-07-20T02:46:11.233Z,21.19
2017-07-20T02:48:39.591Z,21.20
2017-07-20T02:51:07.952Z,21.14
2017-07-20T02:53:36.327Z,21.18
2017-07-20T02:56:04.671Z,21.10
2017-07-20T02:58:33.045Z,21.11
2017-07-20T03:01:01.407Z,21.14
2017-07-20T03:03:30.392Z,21.19
2017-07-20T03:05:58.740Z,21.20
2017-07-20T03:08:27.091Z,21.16
2017-07-20T03:10:55.455Z,21.16
2017-07-20T03:13:23.798Z,21.09
2017-07-20T03:15:52.163Z,21.13
2017-07-20T03:18:20.531Z,21.10
2017-07-20T03:20:48.901Z,21.10
2017-07-20T03:23:17.266Z,21.18
2017-07-20T03:25:45.628Z,21.19
2017-07-20T03:28:13.998Z,21.13
2017-07-20T03:30:42.766Z,21.18
2017-07-20T03:33:11.132Z,21.10
2017-07-20T03:35:39.491Z,21.15
2017-07-20T03:38:07.898Z,21.10
2017-07-20T03:40:36.252Z,21.12
2017-07-20T03:43:04.608Z,21.12
2017-07-20T03:45:33.211Z,21.12
2017-07-20T03:48:01.569Z,21.12
2017-07-20T03:50:29.929Z,21.12
2017-07-20T03:52:58.692Z,21.01
2017-07-20T03:55:27.053Z,20.97
2017-07-20T03:57:55.417Z,21.05
2017-07-20T04:00:23.768Z,20.96
2017-07-20T04:02:52.128Z,21.05
2017-07-20T04:05:20.485Z,21.09
2017-07-20T04:07:49.291Z,21.15
2017-07-20T04:10:18.031Z,21.23
2017-07-20T04:12:46.383Z,21.23
2017-07-20T04:15:14.756Z,21.31
2017-07-20T04:17:43.107Z,21.29
2017-07-20T04:20:11.541Z,21.31
2017-07-20T04:22:39.906Z,21.30
2017-07-20T04:25:08.717Z,21.24
2017-07-20T04:27:37.085Z,21.15
2017-07-20T04:30:05.433Z,21.11
2017-07-20T04:32:33.805Z,21.05
2017-07-20T04:35:02.788Z,21.10
2017-07-20T04:37:31.563Z,21.98
2017-07-20T04:39:59.920Z,21.79
2017-07-20T04:42:28.308Z,25.32
2017-07-20T04:44:56.689Z,23.92
2017-07-20T04:47:25.510Z,23.57
2017-07-20T04:49:54.268Z,27.67
2017-07-20T04:52:22.645Z,27.55
2017-07-20T04:54:51.008Z,25.38
2017-07-20T04:57:19.374Z,27.32
2017-07-20T04:59:47.994Z,26.31
2017-07-20T05:02:16.358Z,24.69
2017-07-20T05:04:44.707Z,23.90
2017-07-20T05:07:13.072Z,24.37
2017-07-20T05:09:41.826Z,25.66
2017-07-20T05:12:10.396Z,24.68
2017-07-20T05:14:38.743Z,25.64
2017-07-20T05:17:07.095Z,29.43
2017-07-20T05:19:35.868Z,28.82
2017-07-20T05:22:04.213Z,31.24
2017-07-20T05:24:32.568Z,33.23
2017-07-20T05:27:00.923Z,29.10
2017-07-20T05:29:29.868Z,32.34
2017-07-20T05:31:58.254Z,34.34
2017-07-20T05:34:26.616Z,33.28
2017-07-20T05:36:54.976Z,33.71
2017-07-20T05:39:23.331Z,32.80
2017-07-20T05:41:52.088Z,32.43
2017-07-20T05:44:20.440Z,31.84
2017-07-20T05:46:48.795Z,33.20
2017-07-20T05:49:17.164Z,34.13
2017-07-20T05:51:45.541Z,34.71
2017-07-20T05:54:13.920Z,34.74
2017-07-20T05:56:42.652Z,33.41
2017-07-20T05:59:11.016Z,35.98
2017-07-20T06:01:39.381Z,35.32
2017-07-20T06:04:07.751Z,36.65
2017-07-20T06:06:36.109Z,33.46
2017-07-20T06:09:04.481Z,34.11
2017-07-20T06:11:32.931Z,34.51
2017-07-20T06:14:01.293Z,35.60
2017-07-20T06:16:29.639Z,35.85
2017-07-20T06:18:58.400Z,35.45
2017-07-20T06:21:27.012Z,37.23
2017-07-20T06:23:55.550Z,35.65
2017-07-20T06:26:23.909Z,35.19
2017-07-20T06:28:52.264Z,35.38
2017-07-20T06:31:20.637Z,34.94
2017-07-20T06:33:49.392Z,35.82
2017-07-20T06:36:17.747Z,35.54
2017-07-20T06:38:46.108Z,36.15
2017-07-20T06:41:14.516Z,35.44
2017-07-20T06:43:43.088Z,37.62
2017-07-20T06:46:11.585Z,35.41
2017-07-20T06:48:39.954Z,35.22
2017-07-20T06:51:08.310Z,36.51
2017-07-20T06:53:36.829Z,36.57
2017-07-20T06:56:05.184Z,38.32
2017-07-20T06:58:33.553Z,38.73
2017-07-20T07:01:01.914Z,36.43
2017-07-20T07:06:04.210Z,36.00
2017-07-20T07:08:32.577Z,37.81
2017-07-20T07:11:01.331Z,33.50
2017-07-20T07:13:29.684Z,34.93
2017-07-20T07:15:58.046Z,34.57
2017-07-20T07:18:26.387Z,37.33
2017-07-20T07:20:54.762Z,37.64
2017-07-20T07:23:23.103Z,37.92
2017-07-20T07:25:51.592Z,37.60
2017-07-20T07:28:19.944Z,35.94
2017-07-20T07:30:48.304Z,34.45
2017-07-20T07:33:17.080Z,34.21
2017-07-20T07:35:45.821Z,35.17
2017-07-20T07:38:14.179Z,38.29
2017-07-20T07:40:42.585Z,37.55
2017-07-20T07:43:10.950Z,38.04
2017-07-20T07:45:39.349Z,38.89
2017-07-20T07:48:08.078Z,40.86
2017-07-20T07:50:36.841Z,39.70
2017-07-20T07:53:05.192Z,38.39
2017-07-20T07:55:33.552Z,35.16
2017-07-20T07:58:02.595Z,34.60
2017-07-20T08:00:32.393Z,33.49
2017-07-20T08:03:01.989Z,35.23
2017-07-20T08:05:30.768Z,37.07
2017-07-20T08:08:01.175Z,38.69
2017-07-20T08:10:30.736Z,39.98
2017-07-20T08:12:59.594Z,40.15
2017-07-20T08:15:28.151Z,39.75
2017-07-20T08:17:58.555Z,39.96
2017-07-20T08:20:27.661Z,39.73
2017-07-20T08:22:57.718Z,40.78
2017-07-20T08:25:26.508Z,41.31
2017-07-20T08:27:56.104Z,39.80
2017-07-20T08:30:25.171Z,42.04
2017-07-20T08:32:54.724Z,41.61
2017-07-20T08:35:23.090Z,41.18
2017-07-20T08:37:51.558Z,40.79
2017-07-20T08:40:19.903Z,40.27
2017-07-20T08:42:48.249Z,40.00
2017-07-20T08:45:16.630Z,40.44
2017-07-20T08:47:44.975Z,41.51
2017-07-20T08:50:13.331Z,40.55
2017-07-20T08:52:41.702Z,40.29
2017-07-20T08:55:10.206Z,40.68
2017-07-20T08:57:38.955Z,41.53
2017-07-20T09:00:07.305Z,41.20
2017-07-20T09:02:35.650Z,40.86
2017-07-20T09:05:04.391Z,40.84
2017-07-20T09:07:32.751Z,40.12
2017-07-20T09:10:01.104Z,40.88
2017-07-20T09:12:30.170Z,40.75
2017-07-20T09:14:58.524Z,41.49
2017-07-20T09:17:26.862Z,40.61
2017-07-20T09:19:56.355Z,39.59
2017-07-20T09:22:25.344Z,41.17
2017-07-20T09:24:54.087Z,41.62
2017-07-20T09:27:22.437Z,40.54
2017-07-20T09:29:50.779Z,39.75
2017-07-20T09:32:19.133Z,39.14
2017-07-20T09:34:47.480Z,38.78
2017-07-20T09:37:16.000Z,40.10
2017-07-20T09:39:44.349Z,40.33
2017-07-20T09:42:12.691Z,41.60
2017-07-20T09:44:41.460Z,42.81
2017-07-20T09:47:09.812Z,42.07
2017-07-20T09:49:38.381Z,39.82
2017-07-20T09:52:06.751Z,41.81
2017-07-20T09:54:35.146Z,41.52
2017-07-20T09:57:03.494Z,41.16
2017-07-20T09:59:31.838Z,41.04
2017-07-20T10:02:00.396Z,40.99
2017-07-20T10:04:28.742Z,41.81
2017-07-20T10:06:57.101Z,42.01
2017-07-20T10:09:25.857Z,42.38
2017-07-20T10:11:54.198Z,40.84
2017-07-20T10:14:22.546Z,41.68
2017-07-20T10:16:51.284Z,40.37
2017-07-20T10:19:19.639Z,40.37
2017-07-20T10:21:47.988Z,41.03
2017-07-20T10:24:16.372Z,41.91
2017-07-20T10:26:45.458Z,39.67
2017-07-20T10:29:14.402Z,39.52
2017-07-20T10:31:42.746Z,41.72
2017-07-20T10:34:11.500Z,42.16
2017-07-20T10:36:39.864Z,40.38
2017-07-20T10:39:08.212Z,40.19
2017-07-20T10:41:36.710Z,39.50
2017-07-20T10:44:05.054Z,38.22
2017-07-20T10:46:33.791Z,38.69
2017-07-20T10:49:02.236Z,38.98
2017-07-20T10:51:30.575Z,39.32
2017-07-20T10:53:59.127Z,38.95
2017-07-20T10:56:27.476Z,38.32
2017-07-20T10:58:55.828Z,38.96
2017-07-20T11:01:24.584Z,38.23
2017-07-20T11:03:52.930Z,38.39
2017-07-20T11:06:21.618Z,38.89
2017-07-20T11:08:50.270Z,39.56
2017-07-20T11:11:19.110Z,37.99
2017-07-20T11:13:47.704Z,38.53
2017-07-20T11:16:16.052Z,38.63
2017-07-20T11:18:44.436Z,39.21
2017-07-20T11:21:13.160Z,37.34
2017-07-20T11:23:41.494Z,38.10
2017-07-20T11:26:09.859Z,37.08
2017-07-20T11:28:38.808Z,36.80
2017-07-20T11:31:07.149Z,36.24
2017-07-20T11:33:35.814Z,36.32
2017-07-20T11:36:04.456Z,36.83
2017-07-20T11:38:32.802Z,36.47
2017-07-20T11:41:01.148Z,35.94
2017-07-20T11:43:30.099Z,35.15
2017-07-20T11:45:58.452Z,35.24
2017-07-20T11:48:26.800Z,34.31
2017-07-20T11:50:55.867Z,34.88
2017-07-20T11:53:24.476Z,34.32
2017-07-20T11:55:53.224Z,34.46
2017-07-20T11:58:22.016Z,34.53
2017-07-20T12:00:50.397Z,34.76
2017-07-20T12:03:19.050Z,34.52
2017-07-20T12:05:47.656Z,35.02
2017-07-20T12:08:16.003Z,34.85
2017-07-20T12:10:44.342Z,33.87
2017-07-20T12:13:12.708Z,34.47
2017-07-20T12:15:41.064Z,34.12
2017-07-20T12:18:09.406Z,34.28
2017-07-20T12:20:38.335Z,34.14
2017-07-20T12:23:06.685Z,34.18
2017-07-20T12:25:35.428Z,34.31
2017-07-20T12:28:03.787Z,34.50
2017-07-20T12:30:32.125Z,34.30
2017-07-20T12:33:02.535Z,34.66
2017-07-20T12:35:30.876Z,34.91
2017-07-20T12:37:59.464Z,35.04
2017-07-20T12:40:27.809Z,34.57
2017-07-20T12:42:56.147Z,34.21
2017-07-20T12:45:24.498Z,34.56
2017-07-20T12:47:52.959Z,34.44
2017-07-20T12:50:21.320Z,34.06
2017-07-20T12:52:49.673Z,34.42
2017-07-20T12:55:18.015Z,34.92
2017-07-20T12:57:46.387Z,34.78
2017-07-20T13:00:14.882Z,34.45
2017-07-20T13:02:43.229Z,33.97
2017-07-20T13:05:11.581Z,34.29
2017-07-20T13:07:40.333Z,34.77
2017-07-20T13:10:08.670Z,34.80
2017-07-20T13:12:37.232Z,34.65
2017-07-20T13:15:05.971Z,34.66
2017-07-20T13:17:34.326Z,34.88
2017-07-20T13:20:02.692Z,34.87
2017-07-20T13:22:31.037Z,34.16
2017-07-20T13:24:59.587Z,34.13
2017-07-20T13:27:27.936Z,34.84
2017-07-20T13:29:56.296Z,34.93
2017-07-20T13:32:25.134Z,34.43
2017-07-20T13:34:53.493Z,34.38
2017-07-20T13:37:21.842Z,34.74
2017-07-20T13:39:50.578Z,35.35
2017-07-20T13:42:19.054Z,35.27
2017-07-20T13:44:47.454Z,35.22
2017-07-20T13:47:15.889Z,34.76
2017-07-20T13:49:44.239Z,34.61
2017-07-20T13:52:12.586Z,33.89
2017-07-20T13:54:40.953Z,33.52
2017-07-20T13:57:09.305Z,33.10
2017-07-20T13:59:37.659Z,32.54
2017-07-20T14:02:06.016Z,32.91
2017-07-20T14:04:34.647Z,33.29
2017-07-20T14:07:03.002Z,33.02
2017-07-20T14:09:31.455Z,32.66
2017-07-20T14:11:59.811Z,32.95
2017-07-20T14:14:28.163Z,32.78
2017-07-20T14:16:56.515Z,32.39
2017-07-20T14:19:24.861Z,31.81
2017-07-20T14:21:53.231Z,32.28
2017-07-20T14:24:21.589Z,31.79
2017-07-20T14:26:49.960Z,31.68
2017-07-20T14:29:18.316Z,31.68
2017-07-20T14:31:46.679Z,31.46
2017-07-20T14:34:15.019Z,31.66
2017-07-20T14:36:43.515Z,31.46
2017-07-20T14:39:11.867Z,31.17
2017-07-20T14:41:40.207Z,31.22
2017-07-20T14:44:08.563Z,31.50
2017-07-20T14:46:36.911Z,32.04
2017-07-20T14:49:05.272Z,32.21
2017-07-20T14:51:33.670Z,32.45
2017-07-20T14:54:02.027Z,31.78
2017-07-20T14:56:30.762Z,31.13
2017-07-20T14:58:59.114Z,31.04
2017-07-20T15:01:28.203Z,31.21
2017-07-20T15:03:56.672Z,31.17
2017-07-20T15:06:25.027Z,31.05
2017-07-20T15:08:53.385Z,31.21
2017-07-20T15:11:22.548Z,31.18
2017-07-20T15:13:50.890Z,31.15
2017-07-20T15:16:19.643Z,30.85
2017-07-20T15:18:47.989Z,30.69
2017-07-20T15:21:16.691Z,30.64
2017-07-20T15:23:45.044Z,30.17
2017-07-20T15:26:13.468Z,30.30
2017-07-20T15:28:41.818Z,30.21
2017-07-20T15:31:10.211Z,29.92
2017-07-20T15:33:38.577Z,29.90
2017-07-20T15:36:06.936Z,29.73
2017-07-20T15:38:35.296Z,29.62
2017-07-20T15:41:04.098Z,29.62
2017-07-20T15:43:32.969Z,29.57
2017-07-20T15:46:01.310Z,29.35
2017-07-20T15:48:29.669Z,29.25
2017-07-20T15:50:58.010Z,29.30
2017-07-20T15:53:26.751Z,29.29
2017-07-20T15:55:55.106Z,29.09
2017-07-20T15:58:23.455Z,29.14
2017-07-20T16:00:51.942Z,28.77
2017-07-20T16:03:20.693Z,28.11
2017-07-20T16:05:49.280Z,27.75
2017-07-20T16:08:17.639Z,27.71
2017-07-20T16:10:46.000Z,27.68
2017-07-20T16:13:14.364Z,27.61
2017-07-20T16:15:43.121Z,27.84
2017-07-20T16:18:11.475Z,27.78
2017-07-20T16:20:39.829Z,27.65
2017-07-20T16:23:08.345Z,27.79
2017-07-20T16:25:36.692Z,27.71
2017-07-20T16:28:05.054Z,27.59
2017-07-20T16:30:33.813Z,27.85
2017-07-20T16:33:02.169Z,28.01
2017-07-20T16:35:30.520Z,28.04
2017-07-20T16:37:58.914Z,28.10
2017-07-20T16:40:27.280Z,28.07
2017-07-20T16:42:55.692Z,28.03
2017-07-20T16:45:24.268Z,28.02
2017-07-20T16:47:52.730Z,28.16
2017-07-20T16:50:21.080Z,28.16
2017-07-20T16:52:49.837Z,27.90
2017-07-20T16:55:18.201Z,28.19
2017-07-20T16:57:46.784Z,28.10
2017-07-20T17:00:15.148Z,28.36
2017-07-20T17:02:43.506Z,28.54
2017-07-20T17:05:11.864Z,28.52
2017-07-20T17:07:40.664Z,28.44
2017-07-20T17:10:09.332Z,28.18
2017-07-20T17:12:38.082Z,27.88
2017-07-20T17:15:06.483Z,27.69
2017-07-20T17:17:35.034Z,27.42
2017-07-20T17:20:03.388Z,27.36
2017-07-20T17:22:31.749Z,27.31
2017-07-20T17:25:00.509Z,27.28
2017-07-20T17:27:28.868Z,27.58
2017-07-20T17:29:57.445Z,27.41
2017-07-20T17:32:25.914Z,27.35
2017-07-20T17:34:54.382Z,27.34
2017-07-20T17:37:22.736Z,27.24
2017-07-20T17:39:51.691Z,27.29
2017-07-20T17:42:20.056Z,27.34
2017-07-20T17:44:48.399Z,27.31
2017-07-20T17:47:17.150Z,27.23
2017-07-20T17:49:45.888Z,27.23
2017-07-20T17:52:14.271Z,27.19
2017-07-20T17:54:42.741Z,27.00
2017-07-20T17:57:11.167Z,26.96
2017-07-20T17:59:39.519Z,26.76
2017-07-20T18:02:08.245Z,26.69
2017-07-20T18:04:36.600Z,26.80
2017-07-20T18:07:04.956Z,26.77
2017-07-20T18:09:33.358Z,26.71
2017-07-20T18:12:02.415Z,26.58
2017-07-20T18:14:30.779Z,26.57
2017-07-20T18:16:59.136Z,26.48
2017-07-20T18:19:27.509Z,26.55
2017-07-20T18:21:55.864Z,26.46
2017-07-20T18:24:24.238Z,26.47
2017-07-20T18:26:52.586Z,26.38
2017-07-20T18:29:21.438Z,26.50
2017-07-20T18:31:49.796Z,26.42
2017-07-20T18:34:18.150Z,26.33
2017-07-20T18:36:46.508Z,26.28
2017-07-20T18:39:15.256Z,26.21
2017-07-20T18:41:43.624Z,26.16
2017-07-20T18:44:11.978Z,26.13
2017-07-20T18:46:40.339Z,26.16
2017-07-20T18:49:09.079Z,26.18
2017-07-20T18:51:37.551Z,26.17
2017-07-20T18:54:05.924Z,26.16
2017-07-20T18:56:34.286Z,26.01
2017-07-20T18:59:02.643Z,25.95
2017-07-20T19:01:31.378Z,25.81
2017-07-20T19:03:59.735Z,25.78
2017-07-20T19:06:28.088Z,25.82
2017-07-20T19:08:56.844Z,25.72
2017-07-20T19:11:25.201Z,25.66
2017-07-20T19:13:53.801Z,25.63
2017-07-20T19:16:22.149Z,25.53
2017-07-20T19:18:50.496Z,25.50
2017-07-20T19:21:19.247Z,25.44
2017-07-20T19:23:47.601Z,25.45
2017-07-20T19:26:15.961Z,25.43
2017-07-20T19:28:44.304Z,25.36
2017-07-20T19:31:12.655Z,25.32
2017-07-20T19:33:41.013Z,25.29
2017-07-20T19:36:09.419Z,25.39
2017-07-20T19:38:37.766Z,25.31
2017-07-20T19:41:06.132Z,25.24
2017-07-20T19:43:34.876Z,25.14
2017-07-20T19:46:03.455Z,25.23
2017-07-20T19:48:31.801Z,25.19
2017-07-20T19:51:00.147Z,25.19
2017-07-20T19:53:28.504Z,25.09
2017-07-20T19:55:56.844Z,25.08
2017-07-20T20:01:00.170Z,24.96
2017-07-20T20:03:28.528Z,24.88
2017-07-20T20:05:56.912Z,24.85
2017-07-20T20:08:25.402Z,24.84
2017-07-20T20:10:53.775Z,24.78
2017-07-20T20:13:22.140Z,24.76
2017-07-20T20:15:50.493Z,24.66
2017-07-20T20:18:19.303Z,24.66
2017-07-20T20:20:47.651Z,24.62
2017-07-20T20:23:16.040Z,24.64
2017-07-20T20:25:44.999Z,24.60
2017-07-20T20:28:13.353Z,24.58
2017-07-20T20:30:41.756Z,24.50
2017-07-20T20:33:10.107Z,24.48
2017-07-20T20:35:38.465Z,24.51
2017-07-20T20:38:07.212Z,24.36
2017-07-20T20:40:35.568Z,24.31
2017-07-20T20:43:03.934Z,24.28
2017-07-20T20:45:32.281Z,24.27
2017-07-20T20:48:00.724Z,24.17
2017-07-20T20:50:29.083Z,24.19
2017-07-20T20:52:57.588Z,24.12
2017-07-20T20:55:25.926Z,24.10
2017-07-20T20:57:54.281Z,24.05
2017-07-20T21:00:23.029Z,23.99
2017-07-20T21:02:51.411Z,23.94
2017-07-20T21:05:19.924Z,23.81
2017-07-20T21:07:48.371Z,23.76
2017-07-20T21:10:16.736Z,23.67
2017-07-20T21:12:45.088Z,23.65
2017-07-20T21:15:13.504Z,23.63
2017-07-20T21:17:41.855Z,23.58
2017-07-20T21:20:10.847Z,23.54
2017-07-20T21:22:39.406Z,23.60
2017-07-20T21:25:08.170Z,23.54
2017-07-20T21:27:36.596Z,23.45
2017-07-20T21:30:04.946Z,23.43
2017-07-20T21:32:33.290Z,23.42
2017-07-20T21:35:01.914Z,23.37
2017-07-20T21:37:30.681Z,23.36
2017-07-20T21:39:59.438Z,23.30
2017-07-20T21:42:27.811Z,23.27
2017-07-20T21:44:56.194Z,23.19
2017-07-20T21:47:24.587Z,23.21
2017-07-20T21:49:52.950Z,23.24
2017-07-20T21:52:21.466Z,23.12
2017-07-20T21:54:49.814Z,23.14
2017-07-20T21:57:18.210Z,23.14
2017-07-20T21:59:46.577Z,23.20
2017-07-20T22:02:14.929Z,23.34
2017-07-20T22:04:43.679Z,23.44
2017-07-20T22:07:12.031Z,23.39
2017-07-20T22:09:40.391Z,23.23
2017-07-20T22:12:08.740Z,23.09
2017-07-20T22:14:37.678Z,23.11
2017-07-20T22:17:06.031Z,23.08
2017-07-20T22:19:34.386Z,22.98
2017-07-20T22:22:03.151Z,22.92
2017-07-20T22:24:31.519Z,22.92
2017-07-20T22:26:59.870Z,22.83
2017-07-20T22:29:28.223Z,22.86
2017-07-20T22:31:56.980Z,22.91
2017-07-20T22:34:25.347Z,22.88
2017-07-20T22:36:53.922Z,22.87
2017-07-20T22:39:22.270Z,22.76
2017-07-20T22:41:50.632Z,22.67
2017-07-20T22:44:19.383Z,22.58
2017-07-20T22:46:47.737Z,22.56
2017-07-20T22:49:16.108Z,22.59
2017-07-20T22:51:44.454Z,22.51
2017-07-20T22:54:13.207Z,22.44
2017-07-20T22:56:41.564Z,22.32
2017-07-20T22:59:10.156Z,22.42
2017-07-20T23:01:38.516Z,22.39
2017-07-20T23:04:06.870Z,22.36
2017-07-20T23:06:35.627Z,22.27
2017-07-20T23:09:04.064Z,22.24
2017-07-20T23:11:32.428Z,22.12
2017-07-20T23:14:00.770Z,22.20
2017-07-20T23:16:29.131Z,22.11
2017-07-20T23:18:57.475Z,22.15
2017-07-20T23:21:25.848Z,22.04
2017-07-20T23:23:54.191Z,22.08
2017-07-20T23:26:22.720Z,22.02
2017-07-20T23:28:51.067Z,21.96
2017-07-20T23:31:19.806Z,22.00
2017-07-20T23:33:48.642Z,21.88
2017-07-20T23:36:16.996Z,21.88
2017-07-20T23:38:45.364Z,21.86
2017-07-20T23:41:13.719Z,21.77
2017-07-20T23:43:42.093Z,21.69
2017-07-20T23:46:10.442Z,21.80
2017-07-20T23:48:39.201Z,21.72
2017-07-20T23:51:07.548Z,21.64
2017-07-20T23:53:35.913Z,21.57
2017-07-20T23:56:04.265Z,21.54
2017-07-20T23:58:32.947Z,21.45
